Time;durP1;ratioP1;P1;durP2;ratioP2;P2;SDS_P1;SDS_P2;PMS_P1;PMS_P2;Temp;Humidity;BMP_temperature;BMP_pressure;BME280_temperature;BME280_humidity;BME280_pressure;Samples;Min_cycle;Max_cycle;Signal;HPM_P1;HPM_P2
2021/12/17 00:05:08;;;;;;;12.30;7.25;;;3.70;99.90;;;;;;5075551;28;20425;-73
2021/12/17 00:07:36;;;;;;;11.48;6.88;;;3.60;99.90;;;;;;5069209;28;20012;-73
2021/12/17 00:10:15;;;;;;;9.13;5.13;;;3.60;99.90;;;;;;5074059;28;20032;-72
2021/12/17 00:12:42;;;;;;;11.68;5.78;;;3.60;99.90;;;;;;5055387;28;20025;-73
2021/12/17 00:15:09;;;;;;;41.10;20.27;;;3.60;99.90;;;;;;5056047;28;20025;-72
2021/12/17 00:17:39;;;;;;;16.85;8.90;;;3.60;99.90;;;;;;5063929;28;20060;-73
2021/12/17 00:52:40;;;;;;;8.63;4.18;;;3.20;99.90;;;;;;5063388;28;20037;-72
2021/12/17 00:55:08;;;;;;;7.68;4.45;;;3.40;99.90;;;;;;5054882;28;20037;-73
2021/12/17 00:57:39;;;;;;;9.77;4.57;;;3.40;99.90;;;;;;5054868;28;20060;-72
2021/12/17 01:00:10;;;;;;;10.40;4.68;;;3.30;99.90;;;;;;5064444;28;20025;-72
2021/12/17 01:02:37;;;;;;;7.43;4.57;;;3.40;99.90;;;;;;5059721;28;20501;-72
2021/12/17 01:05:10;;;;;;;8.73;5.05;;;3.60;99.90;;;;;;5063314;28;20029;-72
2021/12/17 01:07:39;;;;;;;9.60;5.13;;;3.50;99.90;;;;;;5068085;28;20041;-72
2021/12/17 01:10:09;;;;;;;13.98;8.20;;;3.30;99.90;;;;;;5054636;28;20029;-72
2021/12/17 01:12:35;;;;;;;10.05;5.18;;;3.20;99.90;;;;;;5056918;28;20108;-72
2021/12/17 01:15:03;;;;;;;12.10;6.68;;;3.00;99.90;;;;;;5073398;28;20497;-72
2021/12/17 01:17:31;;;;;;;9.90;6.13;;;2.90;99.90;;;;;;5072770;28;20025;-72
2021/12/17 01:36:10;;;;;;;10.10;5.70;;;2.60;99.90;;;;;;5054032;28;20382;-72
2021/12/17 01:44:06;;;;;;;22.60;14.32;;;2.50;99.90;;;;;;5053723;28;20041;-72
2021/12/17 01:46:34;;;;;;;12.07;7.35;;;2.40;99.90;;;;;;5053645;28;20151;-72
2021/12/17 01:59:56;;;;;;;8.32;4.95;;;2.50;99.90;;;;;;5053542;28;20033;-72
2021/12/17 02:02:22;;;;;;;9.48;5.32;;;2.40;99.90;;;;;;5070077;28;20028;-72
2021/12/17 02:04:48;;;;;;;6.82;4.30;;;2.40;99.90;;;;;;5072364;28;20504;-72
2021/12/17 02:07:14;;;;;;;9.75;4.80;;;2.20;99.90;;;;;;5057391;28;20025;-72
2021/12/17 02:20:39;;;;;;;11.65;7.05;;;2.10;99.90;;;;;;5067100;28;20612;-73
2021/12/17 02:28:48;;;;;;;10.32;5.63;;;2.50;99.90;;;;;;5059687;28;20574;-73
2021/12/17 02:33:44;;;;;;;10.02;5.00;;;2.30;99.90;;;;;;5051389;28;20033;-72
2021/12/17 02:36:10;;;;;;;10.57;4.90;;;2.30;99.90;;;;;;5050766;28;20429;-72
2021/12/17 02:38:40;;;;;;;11.98;5.75;;;2.50;99.90;;;;;;5067441;28;20032;-72
2021/12/17 02:46:38;;;;;;;10.40;5.77;;;2.80;99.90;;;;;;5063276;28;20068;-73
2021/12/17 02:49:06;;;;;;;11.20;5.45;;;2.80;99.90;;;;;;5070262;28;20270;-72
2021/12/17 02:51:31;;;;;;;8.07;4.60;;;2.70;99.90;;;;;;5072435;28;20021;-72
2021/12/17 02:53:59;;;;;;;9.85;4.72;;;2.60;99.90;;;;;;5053589;28;20588;-72
2021/12/17 02:56:25;;;;;;;9.43;5.00;;;2.60;99.90;;;;;;5060757;28;20084;-73
2021/12/17 02:58:53;;;;;;;7.57;4.75;;;2.50;99.90;;;;;;5052647;28;20434;-72
2021/12/17 03:01:20;;;;;;;8.00;4.40;;;2.50;99.90;;;;;;5054068;28;20025;-72
2021/12/17 03:03:49;;;;;;;7.20;4.30;;;2.50;99.90;;;;;;5052198;28;20032;-72
2021/12/17 03:06:15;;;;;;;7.50;4.35;;;2.60;99.90;;;;;;5061353;28;20107;-72
2021/12/17 03:08:42;;;;;;;9.93;5.25;;;2.50;99.90;;;;;;5052170;28;20151;-72
2021/12/17 03:11:09;;;;;;;7.05;5.07;;;2.40;99.90;;;;;;5052289;28;20037;-73
2021/12/17 03:13:36;;;;;;;10.00;5.68;;;2.30;99.90;;;;;;5058598;28;20024;-72
2021/12/17 03:16:10;;;;;;;9.18;5.07;;;2.50;99.90;;;;;;5072073;28;20027;-73
2021/12/17 03:18:59;;;;;;;10.27;5.37;;;2.30;99.90;;;;;;5054993;28;20520;-72
2021/12/17 03:24:09;;;;;;;9.10;4.80;;;2.10;99.90;;;;;;5060807;28;20047;-72
2021/12/17 03:26:35;;;;;;;6.80;4.47;;;2.00;99.90;;;;;;5071743;28;20021;-72
2021/12/17 03:29:06;;;;;;;7.43;3.95;;;2.00;99.90;;;;;;5051290;28;20390;-72
2021/12/17 03:31:33;;;;;;;10.95;4.88;;;1.90;99.90;;;;;;5062234;28;20179;-72
2021/12/17 03:34:35;;;;;;;7.22;4.20;;;2.00;99.90;;;;;;5049792;28;20086;-72
2021/12/17 03:36:56;;;;;;;6.80;3.53;;;2.20;99.90;;;;;;5055255;28;20064;-72
2021/12/17 03:39:24;;;;;;;8.48;4.65;;;2.30;99.90;;;;;;5053470;28;20021;-72
2021/12/17 03:41:51;;;;;;;8.68;4.60;;;2.20;99.90;;;;;;5062012;28;20041;-72
2021/12/17 03:44:19;;;;;;;8.25;4.45;;;2.10;99.90;;;;;;5051532;28;20025;-72
2021/12/17 03:46:46;;;;;;;6.60;4.53;;;2.10;99.90;;;;;;5057649;28;20059;-73
2021/12/17 03:49:13;;;;;;;9.82;4.00;;;2.00;99.90;;;;;;5061485;28;20078;-72
2021/12/17 03:52:04;;;;;;;7.30;4.25;;;2.00;99.90;;;;;;5071314;28;20032;-73
2021/12/17 03:54:33;;;;;;;7.72;4.50;;;1.90;99.90;;;;;;5068726;28;20075;-72
2021/12/17 03:57:00;;;;;;;10.65;5.43;;;1.60;99.90;;;;;;5071193;28;20033;-72
2021/12/17 03:59:25;;;;;;;14.43;6.03;;;1.70;99.90;;;;;;5054956;28;20017;-73
2021/12/17 04:01:51;;;;;;;12.77;6.63;;;1.80;99.90;;;;;;5061434;28;20044;-72
2021/12/17 04:04:17;;;;;;;10.35;4.63;;;2.00;99.90;;;;;;5057725;28;20116;-72
2021/12/17 04:06:42;;;;;;;9.23;5.53;;;2.20;99.90;;;;;;5044647;28;20025;-72
2021/12/17 04:09:09;;;;;;;8.65;4.93;;;2.30;99.90;;;;;;5043318;28;20460;-72
2021/12/17 04:11:35;;;;;;;7.50;4.03;;;2.30;99.90;;;;;;5050527;28;20391;-72
2021/12/17 04:14:01;;;;;;;7.65;3.97;;;2.20;99.90;;;;;;5063942;28;20502;-72
2021/12/17 04:16:30;;;;;;;7.80;4.32;;;2.10;99.90;;;;;;5061250;28;20016;-72
2021/12/17 04:18:57;;;;;;;7.35;3.90;;;2.20;99.90;;;;;;5055376;28;20052;-72
2021/12/17 04:21:23;;;;;;;6.40;3.38;;;2.30;99.90;;;;;;5048298;28;20034;-72
2021/12/17 04:23:51;;;;;;;7.20;4.00;;;2.20;99.90;;;;;;5064975;28;20079;-72
2021/12/17 04:26:18;;;;;;;7.50;3.72;;;2.40;99.90;;;;;;5065198;28;20483;-72
2021/12/17 04:28:47;;;;;;;6.20;3.97;;;2.40;99.90;;;;;;5064684;28;20052;-72
2021/12/17 04:31:14;;;;;;;12.95;4.85;;;2.30;99.90;;;;;;5050341;28;20106;-72
2021/12/17 04:33:42;;;;;;;11.23;4.40;;;2.30;99.90;;;;;;5063547;28;20039;-72
2021/12/17 04:36:10;;;;;;;7.75;4.38;;;2.30;99.90;;;;;;5059229;28;20058;-72
2021/12/17 04:38:36;;;;;;;6.30;3.80;;;2.30;99.90;;;;;;5042123;28;20021;-72
2021/12/17 04:46:37;;;;;;;8.68;3.58;;;2.00;99.90;;;;;;5068911;28;20041;-72
2021/12/17 04:57:39;;;;;;;9.57;3.85;;;2.00;99.90;;;;;;5070128;28;20052;-72
2021/12/17 05:00:09;;;;;;;4.90;2.75;;;2.30;99.90;;;;;;5051494;28;20645;-72
2021/12/17 05:02:41;;;;;;;5.43;3.10;;;2.20;99.90;;;;;;5048760;28;20040;-72
2021/12/17 05:05:09;;;;;;;6.57;3.58;;;2.10;99.90;;;;;;5046899;28;20025;-72
2021/12/17 05:07:38;;;;;;;6.63;3.53;;;2.10;99.90;;;;;;5047017;28;20017;-72
2021/12/17 05:10:16;;;;;;;10.52;4.32;;;2.20;99.90;;;;;;5046557;28;20017;-72
2021/12/17 05:20:54;;;;;;;;;;;2.00;99.90;;;;;;5049984;28;20033;-72
2021/12/17 05:23:25;;;;;;;6.75;3.38;;;2.20;99.90;;;;;;5052936;28;19916;-72
2021/12/17 05:25:54;;;;;;;5.03;2.45;;;2.10;99.90;;;;;;5064349;28;20516;-72
2021/12/17 05:28:20;;;;;;;22.88;20.48;;;1.90;99.90;;;;;;5054168;28;20025;-72
2021/12/17 05:30:47;;;;;;;8.82;4.82;;;1.50;99.90;;;;;;5050613;28;20052;-72
2021/12/17 05:33:15;;;;;;;6.25;3.63;;;1.40;99.90;;;;;;5048784;28;20027;-72
2021/12/17 05:35:41;;;;;;;10.27;5.07;;;1.30;99.90;;;;;;5064532;28;20032;-72
2021/12/17 05:38:07;;;;;;;8.60;4.32;;;1.20;99.90;;;;;;5062277;28;20032;-73
2021/12/17 05:40:33;;;;;;;8.68;4.95;;;1.00;99.90;;;;;;5064367;28;20028;-72
2021/12/17 05:43:01;;;;;;;9.27;4.70;;;1.00;99.90;;;;;;5056463;28;20146;-72
2021/12/17 05:48:04;;;;;;;8.35;4.63;;;1.10;99.90;;;;;;5057918;28;20074;-72
2021/12/17 05:50:30;;;;;;;6.32;2.97;;;1.10;99.90;;;;;;5047879;28;20021;-72
2021/12/17 05:52:56;;;;;;;8.02;3.50;;;1.30;99.90;;;;;;5066435;28;20024;-72
2021/12/17 05:55:22;;;;;;;7.10;2.92;;;1.40;99.90;;;;;;5058095;28;20122;-72
2021/12/17 05:57:48;;;;;;;5.22;2.53;;;1.20;99.90;;;;;;5064454;28;20083;-72
2021/12/17 06:00:14;;;;;;;6.63;2.85;;;1.40;99.90;;;;;;5062181;28;20017;-72
2021/12/17 06:02:40;;;;;;;6.32;3.28;;;1.50;99.90;;;;;;5047896;28;20033;-72
2021/12/17 06:05:06;;;;;;;5.78;2.92;;;1.40;99.90;;;;;;5064016;28;20099;-72
2021/12/17 06:07:32;;;;;;;7.80;4.15;;;1.50;99.90;;;;;;5058073;28;20016;-72
2021/12/17 06:10:00;;;;;;;7.38;3.65;;;1.30;99.90;;;;;;5064161;28;20602;-72
2021/12/17 06:12:25;;;;;;;10.70;4.07;;;1.30;99.90;;;;;;5048005;28;20111;-72
2021/12/17 06:14:51;;;;;;;7.13;2.90;;;1.30;99.90;;;;;;5066189;28;20035;-71
2021/12/17 06:17:17;;;;;;;5.80;2.72;;;1.30;99.90;;;;;;5046670;28;20118;-71
2021/12/17 06:19:43;;;;;;;7.32;3.00;;;1.50;99.90;;;;;;5027671;28;20032;-72
2021/12/17 06:22:08;;;;;;;5.70;2.80;;;1.70;99.90;;;;;;5060240;28;20038;-72
2021/12/17 06:24:34;;;;;;;4.70;2.47;;;1.90;99.90;;;;;;5065480;28;20024;-72
2021/12/17 06:27:00;;;;;;;5.68;2.78;;;2.20;99.90;;;;;;5056963;28;21062;-72
2021/12/17 06:29:26;;;;;;;6.13;2.80;;;2.30;99.90;;;;;;5059192;28;20029;-72
2021/12/17 06:31:52;;;;;;;6.07;3.03;;;2.20;99.90;;;;;;5045233;28;20052;-72
2021/12/17 06:34:18;;;;;;;6.90;3.38;;;1.90;99.90;;;;;;5053751;28;20035;-71
2021/12/17 06:36:43;;;;;;;6.53;3.05;;;1.80;99.90;;;;;;5059842;28;20025;-72
2021/12/17 06:39:09;;;;;;;7.05;3.38;;;1.70;99.90;;;;;;5046213;28;20031;-71
2021/12/17 06:41:35;;;;;;;6.70;3.92;;;1.70;99.90;;;;;;5047057;28;20112;-72
2021/12/17 06:44:01;;;;;;;5.20;3.30;;;1.70;99.90;;;;;;5059140;28;20032;-72
2021/12/17 06:49:10;;;;;;;8.57;3.22;;;1.50;99.90;;;;;;5065012;28;20060;-72
2021/12/17 07:09:07;;;;;;;8.40;4.05;;;1.10;99.90;;;;;;5044853;28;20617;-72
2021/12/17 07:10:55;;;;;;;7.43;4.13;;;1.10;99.90;;;;;;5044830;28;20041;-72
2021/12/17 07:32:31;;;;;;;7.50;2.90;;;1.20;99.90;;;;;;5063256;28;20032;-72
2021/12/17 07:39:52;;;;;;;7.72;3.05;;;1.50;99.90;;;;;;5062713;28;20028;-72
2021/12/17 07:42:18;;;;;;;6.43;2.75;;;1.60;99.90;;;;;;5062461;28;20090;-72
2021/12/17 07:44:44;;;;;;;8.10;3.40;;;1.50;99.90;;;;;;5049856;28;20025;-72
2021/12/17 07:47:09;;;;;;;7.60;4.00;;;1.60;99.90;;;;;;5051451;28;20053;-72
2021/12/17 07:49:35;;;;;;;8.02;3.30;;;1.60;99.90;;;;;;5044065;28;20035;-72
2021/12/17 07:52:01;;;;;;;8.23;3.35;;;1.60;99.90;;;;;;5044544;28;20016;-72
2021/12/17 07:54:27;;;;;;;4.68;2.50;;;1.70;99.90;;;;;;5050815;28;20456;-72
2021/12/17 07:56:52;;;;;;;5.15;2.72;;;1.80;99.90;;;;;;5044422;28;20025;-71
2021/12/17 07:59:18;;;;;;;8.35;3.40;;;1.90;99.90;;;;;;5049967;28;20064;-72
2021/12/17 08:01:44;;;;;;;6.53;2.65;;;1.90;99.90;;;;;;5062991;28;20023;-72
2021/12/17 08:04:10;;;;;;;4.80;2.17;;;1.90;99.90;;;;;;5062978;28;20029;-72
2021/12/17 08:06:37;;;;;;;4.15;2.10;;;2.00;99.90;;;;;;5063179;28;20036;-72
2021/12/17 08:09:04;;;;;;;3.95;2.13;;;2.10;99.90;;;;;;5056603;28;20592;-72
2021/12/17 08:11:36;;;;;;;5.05;2.35;;;2.20;99.90;;;;;;5048354;28;20209;-72
2021/12/17 08:14:03;;;;;;;4.43;2.15;;;2.20;99.90;;;;;;5063057;28;20059;-72
2021/12/17 08:16:40;;;;;;;4.70;2.47;;;2.40;99.90;;;;;;5063232;28;20040;-72
2021/12/17 08:31:57;;;;;;;13.13;3.78;;;2.30;99.90;;;;;;5065173;28;19962;-72
2021/12/17 08:34:23;;;;;;;5.78;2.72;;;2.20;99.90;;;;;;5065644;28;20074;-72
2021/12/17 08:36:50;;;;;;;8.32;3.13;;;2.10;99.90;;;;;;5059173;28;20441;-72
2021/12/17 08:39:16;;;;;;;6.47;3.22;;;2.20;99.90;;;;;;5065568;28;20056;-71
2021/12/17 08:41:42;;;;;;;7.03;4.18;;;2.00;99.90;;;;;;5065689;28;20047;-72
2021/12/17 08:44:08;;;;;;;9.65;4.68;;;1.90;99.90;;;;;;5066099;28;20050;-71
2021/12/17 08:46:35;;;;;;;23.52;12.10;;;1.70;99.90;;;;;;5065724;28;21031;-71
2021/12/17 08:49:02;;;;;;;14.35;7.63;;;1.70;99.90;;;;;;5048388;28;20458;-72
2021/12/17 08:51:30;;;;;;;10.95;4.72;;;1.60;99.90;;;;;;5047194;28;20053;-71
2021/12/17 08:53:57;;;;;;;11.48;6.97;;;1.60;99.90;;;;;;5046900;28;20526;-71
2021/12/17 08:56:27;;;;;;;9.00;4.25;;;1.50;99.90;;;;;;5048824;28;20029;-71
2021/12/17 08:58:53;;;;;;;7.38;3.83;;;1.70;99.90;;;;;;5053063;28;20032;-71
2021/12/17 09:01:20;;;;;;;9.50;6.47;;;1.80;99.90;;;;;;5047473;28;20095;-72
2021/12/17 09:03:47;;;;;;;7.40;3.90;;;2.00;99.90;;;;;;5046987;28;20057;-71
2021/12/17 09:06:16;;;;;;;7.93;5.25;;;1.90;99.90;;;;;;5047128;28;20044;-72
2021/12/17 09:08:42;;;;;;;10.77;4.40;;;1.90;99.90;;;;;;5056966;28;20036;-71
2021/12/17 09:11:09;;;;;;;73.38;32.47;;;2.00;99.90;;;;;;5067399;28;20123;-72
2021/12/17 09:13:35;;;;;;;78.47;36.70;;;2.10;99.90;;;;;;5052675;28;20091;-72
2021/12/17 09:16:05;;;;;;;8.55;4.28;;;2.40;99.90;;;;;;5058782;28;20486;-72
2021/12/17 09:18:31;;;;;;;8.32;3.65;;;2.60;99.90;;;;;;5066744;28;20487;-71
2021/12/17 09:20:57;;;;;;;5.75;3.25;;;2.80;99.90;;;;;;5066624;28;20169;-71
2021/12/17 09:23:23;;;;;;;6.65;2.70;;;2.80;99.90;;;;;;5067016;28;20044;-71
2021/12/17 09:25:49;;;;;;;6.50;3.15;;;2.80;99.90;;;;;;5059248;28;20116;-71
2021/12/17 09:28:15;;;;;;;7.32;3.63;;;2.80;99.90;;;;;;5051714;28;20430;-72
2021/12/17 09:30:41;;;;;;;6.05;3.70;;;2.70;99.90;;;;;;5065071;28;20078;-72
2021/12/17 09:33:07;;;;;;;9.02;4.38;;;2.60;99.90;;;;;;5066165;28;20016;-71
2021/12/17 09:35:33;;;;;;;8.43;3.95;;;2.40;99.90;;;;;;5063772;28;20420;-70
2021/12/17 09:37:59;;;;;;;16.27;7.80;;;2.40;99.90;;;;;;5064687;28;20032;-70
2021/12/17 09:40:25;;;;;;;49.60;27.90;;;2.50;99.90;;;;;;5052408;28;20104;-69
2021/12/17 09:42:51;;;;;;;31.98;18.13;;;2.50;99.90;;;;;;5044470;28;20430;-69
2021/12/17 09:45:18;;;;;;;27.48;14.85;;;2.60;99.90;;;;;;5044904;28;20096;-72
2021/12/17 09:47:46;;;;;;;13.57;7.05;;;2.50;99.90;;;;;;5044315;28;20057;-70
2021/12/17 09:50:18;;;;;;;38.55;20.80;;;2.60;99.90;;;;;;5051337;28;20078;-71
2021/12/17 09:52:44;;;;;;;16.52;8.15;;;2.50;99.90;;;;;;5065161;28;20055;-70
2021/12/17 09:55:10;;;;;;;22.20;11.85;;;2.40;99.90;;;;;;5055092;28;20063;-71
2021/12/17 09:57:36;;;;;;;32.35;17.67;;;2.50;99.90;;;;;;5045961;28;20025;-70
2021/12/17 10:00:10;;;;;;;23.42;12.70;;;2.60;99.90;;;;;;5046172;28;20021;-70
2021/12/17 10:02:36;;;;;;;14.75;7.30;;;2.70;99.90;;;;;;5045819;28;20037;-71
2021/12/17 10:05:03;;;;;;;12.95;7.53;;;2.70;99.90;;;;;;5051339;28;20482;-71
2021/12/17 10:07:30;;;;;;;134.68;64.18;;;2.70;99.90;;;;;;5065740;28;20107;-70
2021/12/17 10:10:03;;;;;;;41.20;19.75;;;2.80;99.90;;;;;;5065840;28;20017;-71
2021/12/17 10:12:34;;;;;;;12.80;6.88;;;3.00;99.90;;;;;;5065453;28;20025;-71
2021/12/17 10:15:26;;;;;;;22.15;11.38;;;3.00;99.90;;;;;;5062397;28;20600;-70
2021/12/17 10:18:01;;;;;;;44.42;19.23;;;3.30;99.90;;;;;;5043096;28;20132;-71
2021/12/17 10:20:33;;;;;;;13.98;7.85;;;3.30;99.90;;;;;;5044880;28;20025;-70
2021/12/17 10:23:06;;;;;;;8.43;4.22;;;3.60;99.50;;;;;;5027643;28;20048;-71
2021/12/17 10:25:34;;;;;;;8.40;4.05;;;3.40;99.90;;;;;;5049232;28;20059;-70
2021/12/17 10:28:05;;;;;;;53.38;24.65;;;3.40;99.90;;;;;;5064658;28;20024;-71
2021/12/17 10:30:36;;;;;;;37.78;17.58;;;3.40;99.40;;;;;;5062287;28;20325;-71
2021/12/17 10:33:05;;;;;;;34.47;16.73;;;3.40;99.70;;;;;;5065234;28;20052;-71
2021/12/17 10:35:33;;;;;;;53.58;25.65;;;3.30;99.90;;;;;;5062247;28;20029;-70
2021/12/17 10:38:03;;;;;;;55.35;24.80;;;3.30;99.90;;;;;;5063533;28;20495;-71
2021/12/17 10:40:34;;;;;;;29.58;13.52;;;3.30;99.80;;;;;;5056632;28;20367;-70
2021/12/17 10:43:07;;;;;;;16.10;8.48;;;3.30;99.90;;;;;;5043738;28;20040;-70
2021/12/17 10:45:41;;;;;;;9.07;3.70;;;3.20;99.90;;;;;;5043073;28;20025;-71
2021/12/17 10:48:33;;;;;;;6.55;2.95;;;3.30;99.90;;;;;;5043309;28;20056;-70
2021/12/17 10:51:08;;;;;;;8.48;3.88;;;3.20;99.90;;;;;;5061211;28;20074;-71
2021/12/17 10:53:34;;;;;;;44.53;19.58;;;3.40;99.90;;;;;;5065056;28;20103;-70
2021/12/17 10:56:00;;;;;;;5.85;3.17;;;3.50;99.90;;;;;;5065299;28;20025;-70
2021/12/17 10:58:27;;;;;;;21.45;9.40;;;3.90;99.80;;;;;;5064615;28;20085;-70
2021/12/17 11:01:05;;;;;;;12.63;5.80;;;4.10;99.50;;;;;;5052284;28;20091;-70
2021/12/17 11:03:42;;;;;;;11.18;7.00;;;3.90;99.90;;;;;;5044851;28;20064;-71
2021/12/17 11:06:08;;;;;;;11.05;6.18;;;4.00;99.90;;;;;;5044762;28;20086;-70
2021/12/17 11:08:37;;;;;;;12.85;6.78;;;4.00;99.90;;;;;;5044876;28;20365;-70
2021/12/17 11:11:12;;;;;;;15.35;7.93;;;4.10;99.90;;;;;;5045601;28;20020;-70
2021/12/17 11:14:00;;;;;;;11.68;7.93;;;4.10;99.90;;;;;;5044889;28;20115;-71
2021/12/17 11:16:27;;;;;;;13.18;6.93;;;4.10;99.90;;;;;;5044400;28;20024;-70
2021/12/17 11:18:54;;;;;;;11.95;7.05;;;4.10;99.90;;;;;;5045052;28;20023;-71
2021/12/17 11:21:21;;;;;;;11.82;7.60;;;4.30;99.90;;;;;;5054601;28;20023;-70
2021/12/17 11:23:48;;;;;;;13.18;7.43;;;4.30;99.90;;;;;;5064455;28;20040;-70
2021/12/17 11:26:14;;;;;;;11.27;6.40;;;4.50;99.90;;;;;;5064498;28;20050;-70
2021/12/17 11:28:44;;;;;;;12.23;6.68;;;4.40;99.90;;;;;;5064509;28;20124;-70
2021/12/17 11:31:10;;;;;;;12.38;6.78;;;4.60;99.90;;;;;;5061885;28;20020;-70
2021/12/17 11:33:37;;;;;;;20.10;9.75;;;4.80;99.90;;;;;;5063097;28;20105;-70
2021/12/17 11:36:03;;;;;;;10.05;6.32;;;4.80;99.70;;;;;;5063613;28;20116;-70
2021/12/17 11:38:50;;;;;;;20.70;10.68;;;4.90;99.50;;;;;;5064213;28;20441;-71
2021/12/17 11:41:26;;;;;;;13.30;6.10;;;5.00;99.40;;;;;;5063252;28;20052;-71
2021/12/17 11:43:57;;;;;;;8.07;4.70;;;5.30;99.30;;;;;;5064306;28;20044;-70
2021/12/17 11:46:32;;;;;;;10.07;6.22;;;5.50;98.80;;;;;;5064361;28;21209;-71
2021/12/17 11:49:15;;;;;;;11.68;6.57;;;5.50;98.70;;;;;;5064699;28;20039;-71
2021/12/17 11:51:52;;;;;;;11.80;5.72;;;5.50;98.90;;;;;;5059466;28;20024;-70
2021/12/17 11:54:25;;;;;;;14.40;8.38;;;5.80;98.60;;;;;;5055038;28;20036;-70
2021/12/17 11:56:54;;;;;;;10.77;6.50;;;5.80;98.50;;;;;;5045586;28;20115;-70
2021/12/17 11:59:26;;;;;;;12.45;6.95;;;6.10;98.40;;;;;;5064216;28;20624;-70
2021/12/17 12:01:57;;;;;;;13.60;7.70;;;6.20;98.20;;;;;;5064229;28;20046;-71
2021/12/17 12:04:32;;;;;;;13.13;6.43;;;6.10;98.30;;;;;;5064084;28;20355;-70
2021/12/17 12:07:09;;;;;;;11.60;6.28;;;6.10;98.40;;;;;;5064358;28;20124;-70
2021/12/17 12:10:00;;;;;;;16.52;5.90;;;6.00;97.80;;;;;;5044322;28;20488;-71
2021/12/17 12:12:33;;;;;;;11.43;5.95;;;6.10;98.00;;;;;;5043873;28;20109;-71
2021/12/17 12:15:17;;;;;;;8.33;5.47;;;6.10;97.70;;;;;;5044046;28;20032;-71
2021/12/17 12:17:58;;;;;;;8.93;5.18;;;6.20;97.80;;;;;;5045488;28;20163;-72
2021/12/17 12:20:48;;;;;;;13.10;6.10;;;6.20;97.40;;;;;;5063864;28;20517;-70
2021/12/17 12:23:24;;;;;;;11.50;5.10;;;6.30;98.00;;;;;;5062977;28;20033;-71
2021/12/17 12:26:20;;;;;;;12.82;7.22;;;6.50;97.10;;;;;;5063699;28;20689;-70
2021/12/17 12:28:47;;;;;;;29.45;12.73;;;6.70;97.10;;;;;;5051610;28;20048;-71
2021/12/17 12:31:12;;;;;;;288.48;119.32;;;6.70;96.50;;;;;;5052425;28;20091;-70
2021/12/17 12:34:18;;;;;;;65.10;28.48;;;6.50;96.50;;;;;;5062886;28;20645;-71
2021/12/17 12:36:58;;;;;;;;;;;6.70;96.50;;;;;;4980002;28;20078;-71
2021/12/17 12:39:27;;;;;;;11.45;6.05;;;6.60;97.10;;;;;;5055274;28;19904;-71
2021/12/17 12:41:57;;;;;;;13.30;5.93;;;6.60;97.10;;;;;;5060248;28;20039;-71
2021/12/17 12:44:44;;;;;;;27.00;13.80;;;6.60;96.70;;;;;;5061456;28;20029;-71
2021/12/17 12:47:31;;;;;;;22.48;11.32;;;6.50;96.70;;;;;;5061854;28;20117;-70
2021/12/17 12:50:08;;;;;;;13.20;6.45;;;6.60;96.80;;;;;;5062102;28;20028;-70
2021/12/17 12:52:45;;;;;;;12.35;6.97;;;6.50;96.40;;;;;;5047025;28;20025;-71
2021/12/17 12:55:16;;;;;;;11.77;6.95;;;6.70;97.00;;;;;;5044974;28;20164;-71
2021/12/17 12:58:03;;;;;;;11.82;6.38;;;6.70;96.70;;;;;;5063108;28;20086;-71
2021/12/17 13:00:51;;;;;;;11.82;6.00;;;6.70;96.60;;;;;;5062578;28;20036;-71
2021/12/17 13:03:22;;;;;;;9.75;5.70;;;6.60;96.50;;;;;;5062640;28;20126;-71
2021/12/17 13:05:49;;;;;;;11.50;5.60;;;6.50;96.60;;;;;;5064927;28;20112;-70
2021/12/17 13:08:17;;;;;;;8.48;4.65;;;6.70;96.40;;;;;;5051422;28;20029;-71
2021/12/17 13:10:58;;;;;;;18.80;8.13;;;6.70;95.70;;;;;;5046545;28;20087;-71
2021/12/17 13:16:41;;;;;;;12.45;4.72;;;7.00;95.00;;;;;;5046170;28;20090;-71
2021/12/17 13:24:27;;;;;;;6.38;4.18;;;6.90;95.50;;;;;;5046564;28;20036;-70
2021/12/17 13:26:59;;;;;;;6.78;4.03;;;6.90;95.50;;;;;;5066004;28;20037;-70
2021/12/17 13:29:32;;;;;;;9.77;4.22;;;6.90;95.50;;;;;;5062726;28;20021;-71
2021/12/17 13:32:14;;;;;;;7.40;4.90;;;6.80;95.40;;;;;;5066841;28;20047;-71
2021/12/17 13:34:46;;;;;;;9.18;4.47;;;6.80;95.70;;;;;;5065735;28;20055;-71
2021/12/17 13:37:15;;;;;;;14.02;5.05;;;7.00;95.40;;;;;;5048679;28;20104;-71
2021/12/17 13:39:44;;;;;;;8.07;5.00;;;7.00;95.60;;;;;;5059295;28;20060;-70
2021/12/17 13:42:15;;;;;;;11.85;5.68;;;7.10;95.20;;;;;;5068757;28;20082;-71
2021/12/17 13:44:42;;;;;;;11.60;5.93;;;7.00;95.30;;;;;;5068291;28;20597;-71
2021/12/17 13:47:22;;;;;;;10.05;5.35;;;6.80;95.30;;;;;;5068358;28;20119;-71
2021/12/17 13:50:17;;;;;;;10.68;5.07;;;6.80;95.30;;;;;;5061020;28;20118;-71
2021/12/17 13:52:53;;;;;;;9.82;4.97;;;6.80;95.30;;;;;;5049497;28;20033;-71
2021/12/17 13:55:24;;;;;;;11.18;5.78;;;6.90;95.70;;;;;;5049324;28;20033;-71
2021/12/17 13:57:50;;;;;;;10.75;6.55;;;6.90;95.80;;;;;;5049314;28;20028;-71
2021/12/17 14:00:17;;;;;;;12.73;5.85;;;6.90;96.00;;;;;;5058039;28;20569;-71
2021/12/17 14:02:45;;;;;;;16.15;6.03;;;6.80;96.00;;;;;;5068822;28;20387;-70
2021/12/17 14:05:24;;;;;;;11.18;5.40;;;6.80;95.90;;;;;;5068611;28;20122;-71
2021/12/17 14:07:52;;;;;;;11.27;4.80;;;6.70;95.90;;;;;;5069087;28;20024;-71
2021/12/17 14:10:27;;;;;;;12.75;5.18;;;6.70;95.50;;;;;;5061561;28;20039;-70
2021/12/17 14:12:53;;;;;;;10.15;5.32;;;6.70;95.60;;;;;;5053086;28;20029;-71
2021/12/17 14:15:22;;;;;;;10.68;6.22;;;6.70;95.60;;;;;;5066610;28;20032;-71
2021/12/17 14:17:52;;;;;;;12.07;6.03;;;6.70;95.60;;;;;;5068633;28;20479;-70
2021/12/17 14:20:47;;;;;;;8.77;5.40;;;6.70;95.80;;;;;;5065986;28;20039;-71
2021/12/17 14:23:22;;;;;;;13.88;5.72;;;6.70;96.40;;;;;;5065496;28;20059;-71
2021/12/17 14:25:49;;;;;;;11.20;5.30;;;6.90;96.30;;;;;;5047142;28;20023;-71
2021/12/17 14:28:33;;;;;;;11.48;5.60;;;6.80;96.10;;;;;;5046794;28;20021;-71
2021/12/17 14:31:01;;;;;;;10.85;5.32;;;6.90;95.90;;;;;;5046991;28;20028;-71
2021/12/17 14:33:43;;;;;;;12.30;6.40;;;6.80;95.90;;;;;;5047584;28;20021;-70
2021/12/17 14:36:12;;;;;;;9.55;5.38;;;6.70;95.70;;;;;;5059692;28;20036;-71
2021/12/17 14:38:39;;;;;;;16.17;5.60;;;6.70;95.70;;;;;;5048578;28;20032;-71
2021/12/17 14:41:07;;;;;;;12.52;5.68;;;6.70;95.80;;;;;;5049815;28;20052;-71
2021/12/17 14:43:44;;;;;;;10.20;5.65;;;6.60;95.80;;;;;;5048153;28;20075;-71
2021/12/17 15:04:49;;;;;;;11.35;5.35;;;6.20;96.30;;;;;;5049118;28;20035;-71
2021/12/17 15:07:15;;;;;;;10.98;5.03;;;6.00;96.50;;;;;;5047995;28;20458;-71
2021/12/17 15:09:42;;;;;;;10.95;4.20;;;6.00;96.60;;;;;;5047918;28;20075;-71
2021/12/17 15:12:36;;;;;;;9.13;4.20;;;6.20;96.40;;;;;;5047536;28;20025;-71
2021/12/17 15:15:05;;;;;;;8.45;4.95;;;6.20;96.40;;;;;;5064148;28;20037;-71
2021/12/17 15:17:32;;;;;;;7.55;3.70;;;6.10;96.30;;;;;;5065689;28;20036;-71
2021/12/17 15:19:58;;;;;;;8.35;3.17;;;6.10;96.10;;;;;;5067206;28;20024;-71
2021/12/17 15:22:24;;;;;;;5.57;2.90;;;6.10;96.30;;;;;;5066652;28;20043;-71
2021/12/17 15:24:49;;;;;;;8.02;3.22;;;6.10;95.60;;;;;;5067022;28;20021;-71
2021/12/17 15:27:15;;;;;;;6.63;3.13;;;6.00;95.90;;;;;;5065666;28;20455;-71
2021/12/17 15:29:41;;;;;;;5.88;2.55;;;5.90;96.10;;;;;;5046466;28;20036;-71
2021/12/17 15:32:07;;;;;;;7.95;2.75;;;6.00;95.80;;;;;;5065445;28;20032;-70
2021/12/17 15:34:33;;;;;;;6.90;3.00;;;6.20;95.40;;;;;;5067559;28;20020;-70
2021/12/17 15:36:59;;;;;;;4.22;1.92;;;6.30;95.10;;;;;;5067497;28;20486;-71
2021/12/17 15:39:28;;;;;;;6.72;2.97;;;6.30;95.00;;;;;;5067412;28;20053;-71
2021/12/17 15:41:54;;;;;;;5.90;2.35;;;6.40;94.80;;;;;;5065636;28;20020;-70
2021/12/17 15:44:21;;;;;;;7.53;2.55;;;6.60;94.30;;;;;;5067404;28;20047;-70
2021/12/17 15:46:47;;;;;;;6.35;2.70;;;6.50;94.40;;;;;;5067303;28;20049;-71
2021/12/17 15:49:13;;;;;;;4.22;2.30;;;6.40;94.50;;;;;;5067081;28;20024;-71
2021/12/17 15:51:38;;;;;;;3.95;1.77;;;6.20;94.80;;;;;;5058146;28;20037;-71
2021/12/17 15:54:05;;;;;;;5.93;2.00;;;6.10;94.60;;;;;;5047211;28;20021;-71
2021/12/17 15:56:32;;;;;;;7.75;2.33;;;6.20;94.70;;;;;;5047095;28;20026;-71
2021/12/17 15:58:59;;;;;;;4.57;2.17;;;6.10;94.80;;;;;;5047213;28;20027;-71
2021/12/17 16:01:24;;;;;;;4.60;1.83;;;6.20;94.80;;;;;;5048259;28;20086;-71
2021/12/17 16:03:51;;;;;;;5.93;1.63;;;6.30;94.60;;;;;;5066668;28;20040;-71
2021/12/17 16:06:17;;;;;;;7.40;2.10;;;6.40;94.40;;;;;;5065262;28;20089;-71
2021/12/17 16:08:47;;;;;;;3.90;1.48;;;6.20;94.60;;;;;;5067204;28;20056;-71
2021/12/17 16:11:41;;;;;;;3.40;2.03;;;6.00;94.80;;;;;;5066794;28;20155;-71
2021/12/17 16:17:17;;;;;;;7.20;2.13;;;6.10;94.60;;;;;;5064653;28;20406;-71
2021/12/17 16:22:05;;;;;;;3.70;1.83;;;6.00;94.70;;;;;;5063197;28;20059;-71
2021/12/17 16:24:31;;;;;;;4.43;1.83;;;6.10;94.60;;;;;;5065028;28;20455;-71
2021/12/17 16:26:57;;;;;;;8.38;2.00;;;5.90;94.70;;;;;;5065326;28;20619;-71
2021/12/17 16:29:23;;;;;;;3.90;1.50;;;5.90;94.70;;;;;;5055451;28;20634;-71
2021/12/17 16:31:49;;;;;;;4.15;1.67;;;6.20;94.30;;;;;;5045333;28;20075;-71
2021/12/17 16:34:16;;;;;;;5.18;2.22;;;6.10;94.30;;;;;;5044932;28;20021;-71
2021/12/17 16:36:43;;;;;;;3.47;1.73;;;6.10;94.40;;;;;;5046576;28;20504;-71